»·PEaware :: N792VA KCRQ-KHND

N792VA :: KCRQ-KHND

FLIGHT INFORMATION

Flight Status: Arrived
Operator: Privately registered:
United States
More flights under this callsign
Pilot: Scott M. (16181)
Aircraft: Unknown
(P28U)
More flights by this aircraft type
Origin: KCRQ McClellan-Palomar
United States
Destination: KHND Henderson
United States
More flights between these airports :: More routes between these airports
Route:
File this flight plan on PilotEdge
Remarks:
Altitude:
(Current/Filed)
9,500ft
Speed:
(Current/Filed)
180kts
Departed: 09-Jul-18 04:57 PM
Arrived: 09-Jul-18 06:32 PM
Distance/Time
Traveled:
201nm/1:35
Distance/Time
To Go:
Arrived

Flight Plot

Page will automatically refresh every two minutes.

Flight plan parsing failed; only flown route is shown


Map Options




Map Legend


Flown Route
Filed Route
Departure Airport
Arrival Airport
Navaid (VOR, NDB)
Fix

Horizontal Profiles

Position Reports

Time Latitude Longitude Heading Altitude Ground
Speed
09-Jul-18 16:46 33.126259 -117.283375 80 312ft 0kts
09-Jul-18 16:47 33.126259 -117.283375 80 312ft 0kts
09-Jul-18 16:48 33.126259 -117.283375 80 312ft 0kts
09-Jul-18 16:49 33.126259 -117.283375 80 312ft 0kts
09-Jul-18 16:50 33.126259 -117.283375 80 312ft 0kts
09-Jul-18 16:51 33.126259 -117.283375 80 312ft 0kts
09-Jul-18 16:52 33.126259 -117.283375 80 312ft 0kts
09-Jul-18 16:53 33.126399 -117.283131 32 312ft 7kts
09-Jul-18 16:54 33.127476 -117.279865 79 308ft 14kts
09-Jul-18 16:55 33.128208 -117.275267 77 308ft 14kts
09-Jul-18 16:56 33.128617 -117.272956 52 301ft 0kts
09-Jul-18 16:57 33.129345 -117.273376 258 306ft 30kts
09-Jul-18 16:58 33.125857 -117.298286 296 1222ft 93kts
09-Jul-18 16:59 33.146577 -117.292273 66 2407ft 116kts
09-Jul-18 17:00 33.154125 -117.255406 75 3589ft 118kts
09-Jul-18 17:01 33.168618 -117.220669 52 4775ft 118kts
09-Jul-18 17:02 33.188263 -117.190033 48 5875ft 118kts
09-Jul-18 17:03 33.208962 -117.158762 48 6878ft 120kts
09-Jul-18 17:04 33.229643 -117.127585 48 7837ft 121kts
09-Jul-18 17:05 33.250382 -117.096249 48 8754ft 120kts
09-Jul-18 17:06 33.271383 -117.064498 49 9480ft 130kts
09-Jul-18 17:07 33.295938 -117.027316 50 9520ft 151kts
09-Jul-18 17:08 33.322127 -116.987562 50 9525ft 152kts
09-Jul-18 17:09 33.347686 -116.948728 50 9530ft 145kts
09-Jul-18 17:10 33.372432 -116.911117 51 9537ft 143kts
09-Jul-18 17:11 33.396960 -116.873854 51 9541ft 143kts
09-Jul-18 17:12 33.421653 -116.836297 51 9531ft 145kts
09-Jul-18 17:13 33.446515 -116.798446 52 9515ft 146kts
09-Jul-18 17:14 33.471674 -116.760060 51 9474ft 148kts
09-Jul-18 17:15 33.497106 -116.721291 51 9449ft 148kts
09-Jul-18 17:16 33.522470 -116.682569 51 9434ft 148kts
09-Jul-18 17:17 33.547679 -116.644043 51 9486ft 145kts
09-Jul-18 17:18 33.572885 -116.605478 51 9480ft 148kts
09-Jul-18 17:19 33.598208 -116.566684 52 9471ft 148kts
09-Jul-18 17:20 33.623485 -116.527917 52 9465ft 147kts
09-Jul-18 17:21 33.648669 -116.489258 52 9463ft 147kts
09-Jul-18 17:22 33.670187 -116.456190 52 9463ft 147kts
09-Jul-18 17:23 33.695292 -116.417574 52 9465ft 147kts
09-Jul-18 17:24 33.720501 -116.378758 52 9469ft 147kts
09-Jul-18 17:25 33.745114 -116.340820 52 9470ft 147kts
09-Jul-18 17:26 33.770362 -116.301868 52 9466ft 148kts
09-Jul-18 17:27 33.795531 -116.262992 52 9457ft 148kts
09-Jul-18 17:28 33.820783 -116.223946 53 9448ft 148kts
09-Jul-18 17:29 33.846042 -116.184840 53 9440ft 149kts
09-Jul-18 17:30 33.871456 -116.145441 53 9432ft 149kts
09-Jul-18 17:31 33.896870 -116.106012 53 9432ft 149kts
09-Jul-18 17:32 33.922260 -116.066578 53 9433ft 149kts
09-Jul-18 17:33 33.947618 -116.027166 53 9458ft 148kts
09-Jul-18 17:34 33.972867 -115.987870 53 9486ft 148kts
09-Jul-18 17:35 33.998202 -115.948387 54 9438ft 153kts
09-Jul-18 17:36 34.023881 -115.908333 54 9459ft 149kts
09-Jul-18 17:37 34.048591 -115.869770 54 9272ft 142kts
09-Jul-18 17:38 34.073759 -115.830362 54 8503ft 151kts
09-Jul-18 17:39 34.099011 -115.790814 55 7911ft 149kts
09-Jul-18 17:40 34.126138 -115.754622 45 7516ft 137kts
09-Jul-18 17:41 34.155237 -115.721949 45 7520ft 148kts
09-Jul-18 17:42 34.185573 -115.687860 45 7520ft 150kts
09-Jul-18 17:43 34.216185 -115.653441 45 7520ft 150kts
09-Jul-18 17:44 34.246672 -115.619131 45 7520ft 150kts
09-Jul-18 17:45 34.277248 -115.584688 45 7520ft 150kts
09-Jul-18 17:46 34.307763 -115.550272 45 7520ft 150kts
09-Jul-18 17:47 34.341755 -115.521165 26 7481ft 152kts
09-Jul-18 17:48 34.381494 -115.499376 25 6737ft 157kts
09-Jul-18 17:49 34.421176 -115.477629 25 6007ft 156kts
09-Jul-18 17:50 34.460972 -115.455779 25 5571ft 157kts
09-Jul-18 17:51 34.500001 -115.434624 25 5525ft 150kts
09-Jul-18 17:52 34.537883 -115.413782 25 5513ft 150kts
09-Jul-18 17:53 34.576751 -115.392424 25 5492ft 154kts
09-Jul-18 17:54 34.616032 -115.370824 26 5454ft 155kts
09-Jul-18 17:55 34.655295 -115.348902 27 5432ft 154kts
09-Jul-18 17:56 34.694178 -115.327426 27 5427ft 156kts
09-Jul-18 17:57 34.740321 -115.301918 27 5410ft 156kts
09-Jul-18 17:58 34.773317 -115.283703 28 5410ft 156kts
09-Jul-18 17:59 34.812328 -115.262130 27 5409ft 155kts
09-Jul-18 18:00 34.852011 -115.240192 27 5410ft 155kts
09-Jul-18 18:01 34.891396 -115.218333 27 5410ft 156kts
09-Jul-18 18:02 34.931064 -115.196350 26 5407ft 157kts
09-Jul-18 18:03 34.970976 -115.174164 25 5404ft 158kts
09-Jul-18 18:04 35.010964 -115.151971 24 5407ft 159kts
09-Jul-18 18:05 35.051171 -115.129544 24 5399ft 158kts
09-Jul-18 18:06 35.091032 -115.107348 24 5390ft 157kts
09-Jul-18 18:07 35.130300 -115.085456 24 5380ft 156kts
09-Jul-18 18:08 35.169727 -115.063448 24 5375ft 155kts
09-Jul-18 18:09 35.208856 -115.041582 24 5372ft 155kts
09-Jul-18 18:10 35.248098 -115.019629 24 5379ft 155kts
09-Jul-18 18:11 35.287301 -114.997682 24 5384ft 155kts
09-Jul-18 18:12 35.326495 -114.975717 24 5380ft 155kts
09-Jul-18 18:13 35.365467 -114.953688 20 5422ft 150kts
09-Jul-18 18:14 35.399294 -114.934846 22 5441ft 151kts
09-Jul-18 18:15 35.437808 -114.913187 21 5439ft 152kts
09-Jul-18 18:16 35.476946 -114.923439 338 5417ft 146kts
09-Jul-18 18:17 35.514752 -114.939295 334 5434ft 144kts
09-Jul-18 18:18 35.543374 -114.951464 340 5448ft 141kts
09-Jul-18 18:19 35.580092 -114.966890 339 5459ft 139kts
09-Jul-18 18:20 35.616838 -114.982539 339 5457ft 140kts
09-Jul-18 18:21 35.645765 -114.994832 341 5459ft 140kts
09-Jul-18 18:22 35.682612 -115.010514 339 5463ft 140kts
09-Jul-18 18:23 35.719057 -115.026013 339 5462ft 141kts
09-Jul-18 18:24 35.756082 -115.041804 340 5470ft 140kts
09-Jul-18 18:25 35.792995 -115.057538 338 5467ft 141kts
09-Jul-18 18:26 35.829933 -115.073283 337 5305ft 141kts
09-Jul-18 18:27 35.866323 -115.088921 336 5168ft 136kts
09-Jul-18 18:28 35.902893 -115.101186 338 4791ft 136kts
09-Jul-18 18:29 35.936073 -115.112394 346 4062ft 133kts
09-Jul-18 18:30 35.968393 -115.114473 351 3483ft 95kts
09-Jul-18 18:31 35.992364 -115.120550 296 3175ft 71kts
09-Jul-18 18:32 35.981027 -115.135255 187 2438ft 79kts
09-Jul-18 18:33 35.974415 -115.136317 268 2424ft 5kts
09-Jul-18 18:34 35.975113 -115.137795 356 2418ft 0kts

Navigation Log

Ident Type
Flight plan parsing failed, navigation log unavailable